Time,TemperatureF,DewpointF,PressureIn,WindDirection,WindDirectionDegrees,WindSpeedMPH,WindSpeedGustMPH,Humidity,HourlyPrecipIn,Conditions,Clouds,dailyrainin,SoftwareType,DateUTC
2013-02-12 00:00:00,34.4,33.9,29.66,NW,309,2.3,2.3,98,0.01,RA,FEW,0.00,WeatherDisplay:10.37,2013-02-12 05:00:00,
2013-02-12 00:01:00,34.3,33.8,29.66,NW,317,3.5,3.5,98,0.01,RA,FEW,0.00,WeatherDisplay:10.37,2013-02-12 05:01:00,
2013-02-12 00:06:00,34.2,33.7,29.66,WNW,299,3.5,3.5,98,0.01,RA,FEW,0.01,WeatherDisplay:10.37,2013-02-12 05:06:00,
2013-02-12 00:11:00,34.0,33.5,29.66,WNW,299,3.5,3.5,98,0.02,RA,FEW,0.01,WeatherDisplay:10.37,2013-02-12 05:11:00,
2013-02-12 00:16:00,33.9,33.4,29.66,WNW,299,2.3,2.3,98,0.01,RA,FEW,0.01,WeatherDisplay:10.37,2013-02-12 05:16:00,
2013-02-12 00:21:00,33.7,33.2,29.65,WNW,299,0.0,0.0,98,0.01,CLR,FEW,0.01,WeatherDisplay:10.37,2013-02-12 05:21:00,
2013-02-12 00:26:00,33.5,33.0,29.66,WNW,299,0.0,0.0,98,0.01,CLR,FEW,0.01,WeatherDisplay:10.37,2013-02-12 05:26:00,
2013-02-12 00:31:00,33.6,33.1,29.66,WNW,295,4.6,4.6,98,0.01,CLR,FEW,0.01,WeatherDisplay:10.37,2013-02-12 05:31:00,
2013-02-12 00:36:00,33.6,33.1,29.66,WNW,296,3.5,3.5,98,0.01,CLR,FEW,0.01,WeatherDisplay:10.37,2013-02-12 05:36:00,
2013-02-12 00:41:00,33.4,32.9,29.66,NNW,330,3.5,3.5,98,0.01,CLR,FEW,0.01,WeatherDisplay:10.37,2013-02-12 05:41:00,
2013-02-12 00:46:00,33.2,32.7,29.66,NW,315,2.3,2.3,98,0.01,CLR,FEW,0.01,WeatherDisplay:10.37,2013-02-12 05:46:00,
2013-02-12 00:51:00,32.9,32.4,29.66,NW,304,4.6,4.6,98,0.01,CLR,FEW,0.01,WeatherDisplay:10.37,2013-02-12 05:51:00,
2013-02-12 00:56:00,32.6,32.1,29.65,NW,318,5.8,5.8,98,0.01,CLR,FEW,0.01,WeatherDisplay:10.37,2013-02-12 05:56:00,
2013-02-12 01:01:00,32.6,31.8,29.66,WNW,302,6.9,6.9,97,0.01,CLR,FEW,0.01,WeatherDisplay:10.37,2013-02-12 06:01:00,
2013-02-12 01:06:00,32.5,31.7,29.66,West,277,6.9,6.9,97,0.00,CLR,FEW,0.01,WeatherDisplay:10.37,2013-02-12 06:06:00,
2013-02-12 01:11:00,32.5,31.7,29.66,NW,321,3.5,3.5,97,0.00,CLR,FEW,0.01,WeatherDisplay:10.37,2013-02-12 06:11:00,
2013-02-12 01:16:00,32.5,31.5,29.66,NW,313,3.5,3.5,96,0.00,CLR,FEW,0.01,WeatherDisplay:10.37,2013-02-12 06:16:00,
2013-02-12 01:21:00,32.4,31.4,29.66,WNW,289,3.5,3.5,96,0.00,CLR,FEW,0.01,WeatherDisplay:10.37,2013-02-12 06:21:00,
2013-02-12 01:26:00,32.4,31.4,29.66,NW,322,4.6,4.6,96,0.00,CLR,FEW,0.01,WeatherDisplay:10.37,2013-02-12 06:26:00,
2013-02-12 01:31:00,32.4,31.4,29.67,NW,309,2.3,2.3,96,0.00,CLR,FEW,0.01,WeatherDisplay:10.37,2013-02-12 06:31:00,
2013-02-12 01:36:00,32.3,31.0,29.66,NW,306,2.3,2.3,95,0.00,CLR,FEW,0.01,WeatherDisplay:10.37,2013-02-12 06:36:00,
2013-02-12 01:41:00,32.3,31.0,29.66,WNW,297,3.5,3.5,95,0.00,CLR,FEW,0.01,WeatherDisplay:10.37,2013-02-12 06:41:00,
2013-02-12 01:46:00,32.3,31.0,29.66,NW,326,3.5,3.5,95,0.00,CLR,FEW,0.01,WeatherDisplay:10.37,2013-02-12 06:46:00,
2013-02-12 01:51:00,32.2,30.9,29.66,NW,316,4.6,4.6,95,0.00,CLR,FEW,0.01,WeatherDisplay:10.37,2013-02-12 06:51:00,
2013-02-12 01:56:00,32.1,30.6,29.66,NW,319,3.5,3.5,94,0.00,CLR,FEW,0.01,WeatherDisplay:10.37,2013-02-12 06:56:00,
2013-02-12 02:01:00,32.0,30.5,29.66,NW,307,3.5,3.5,94,0.00,CLR,FEW,0.01,WeatherDisplay:10.37,2013-02-12 07:01:00,
2013-02-12 02:06:00,31.9,30.4,29.66,WNW,300,3.5,3.5,94,0.00,CLR,FEW,0.01,WeatherDisplay:10.37,2013-02-12 07:06:00,
2013-02-12 02:11:00,31.7,30.2,29.66,NNW,327,3.5,3.5,94,0.00,CLR,FEW,0.01,WeatherDisplay:10.37,2013-02-12 07:11:00,
2013-02-12 02:16:00,31.7,30.2,29.66,WNW,297,3.5,3.5,94,0.00,CLR,FEW,0.01,WeatherDisplay:10.37,2013-02-12 07:16:00,
2013-02-12 02:21:00,31.6,30.3,29.66,WNW,293,4.0,4.0,95,0.00,CLR,FEW,0.01,WeatherDisplay:10.37,2013-02-12 07:21:00,
2013-02-12 02:26:00,31.7,30.4,29.66,NW,319,3.5,3.5,95,0.00,CLR,FEW,0.01,WeatherDisplay:10.37,2013-02-12 07:26:00,
2013-02-12 02:31:00,31.9,30.4,29.66,WNW,298,4.6,4.6,94,0.00,CLR,FEW,0.01,WeatherDisplay:10.37,2013-02-12 07:31:00,
2013-02-12 02:36:00,32.0,30.5,29.66,NW,315,4.6,4.6,94,0.00,CLR,FEW,0.01,WeatherDisplay:10.37,2013-02-12 07:36:00,
2013-02-12 02:41:00,32.1,30.3,29.66,WNW,302,5.8,5.8,93,0.00,CLR,FEW,0.01,WeatherDisplay:10.37,2013-02-12 07:41:00,
2013-02-12 02:46:00,32.1,30.3,29.67,NNW,327,8.1,8.1,93,0.00,CLR,FEW,0.01,WeatherDisplay:10.37,2013-02-12 07:46:00,
2013-02-12 02:51:00,32.1,30.0,29.67,NNW,335,2.0,2.0,92,0.00,CLR,FEW,0.01,WeatherDisplay:10.37,2013-02-12 07:51:00,
2013-02-12 02:56:00,32.2,30.1,29.67,NNW,343,2.3,2.3,92,0.00,CLR,FEW,0.01,WeatherDisplay:10.37,2013-02-12 07:56:00,
2013-02-12 03:01:00,32.2,30.1,29.66,SE,141,4.0,4.0,92,0.00,CLR,FEW,0.01,WeatherDisplay:10.37,2013-02-12 08:01:00,
2013-02-12 03:06:00,32.1,29.8,29.66,North,5,3.5,3.5,91,0.00,CLR,FEW,0.01,WeatherDisplay:10.37,2013-02-12 08:06:00,
2013-02-12 03:11:00,32.0,29.9,29.66,West,277,2.3,2.3,92,0.00,CLR,FEW,0.01,WeatherDisplay:10.37,2013-02-12 08:11:00,
2013-02-12 03:16:00,31.9,29.6,29.66,NNW,329,3.5,3.5,91,0.00,CLR,FEW,0.01,WeatherDisplay:10.37,2013-02-12 08:16:00,
2013-02-12 03:21:00,31.7,29.6,29.66,NNW,328,0.0,0.0,92,0.00,CLR,FEW,0.01,WeatherDisplay:10.37,2013-02-12 08:21:00,
2013-02-12 03:26:00,31.6,29.5,29.66,WNW,292,2.3,2.3,92,0.00,CLR,FEW,0.01,WeatherDisplay:10.37,2013-02-12 08:26:00,
2013-02-12 03:31:00,31.7,29.6,29.65,NW,322,3.5,3.5,92,0.00,CLR,FEW,0.01,WeatherDisplay:10.37,2013-02-12 08:31:00,
2013-02-12 03:36:00,31.7,29.6,29.66,West,269,2.3,2.3,92,0.00,CLR,FEW,0.01,WeatherDisplay:10.37,2013-02-12 08:36:00,
2013-02-12 03:41:00,31.7,29.4,29.65,NW,309,5.8,5.8,91,0.00,CLR,FEW,0.01,WeatherDisplay:10.37,2013-02-12 08:41:00,
2013-02-12 03:46:00,31.8,29.5,29.65,NW,321,2.3,2.3,91,0.00,CLR,FEW,0.01,WeatherDisplay:10.37,2013-02-12 08:46:00,
2013-02-12 03:51:00,31.8,29.5,29.66,North,355,1.2,1.2,91,0.00,CLR,FEW,0.01,WeatherDisplay:10.37,2013-02-12 08:51:00,
2013-02-12 03:56:00,32.0,29.4,29.66,NW,304,8.1,8.1,90,0.00,CLR,FEW,0.01,WeatherDisplay:10.37,2013-02-12 08:56:00,
2013-02-12 04:01:00,32.2,29.3,29.66,WNW,297,3.5,3.5,89,0.00,CLR,FEW,0.01,WeatherDisplay:10.37,2013-02-12 09:01:00,
2013-02-12 04:06:00,32.1,29.2,29.66,WNW,294,3.5,3.5,89,0.00,CLR,FEW,0.01,WeatherDisplay:10.37,2013-02-12 09:06:00,
2013-02-12 04:11:00,32.1,29.2,29.66,West,279,4.6,4.6,89,0.00,CLR,FEW,0.01,WeatherDisplay:10.37,2013-02-12 09:11:00,
2013-02-12 04:16:00,32.2,29.3,29.66,WNW,303,3.5,3.5,89,0.00,CLR,FEW,0.01,WeatherDisplay:10.37,2013-02-12 09:16:00,
2013-02-12 04:21:00,32.2,29.3,29.66,WNW,298,3.5,3.5,89,0.00,CLR,FEW,0.01,WeatherDisplay:10.37,2013-02-12 09:21:00,
2013-02-12 04:26:00,32.3,29.1,29.66,WNW,293,3.5,3.5,88,0.00,CLR,FEW,0.01,WeatherDisplay:10.37,2013-02-12 09:26:00,
2013-02-12 04:31:00,32.3,29.1,29.66,WNW,294,3.5,3.5,88,0.00,CLR,FEW,0.01,WeatherDisplay:10.37,2013-02-12 09:31:00,
2013-02-12 04:36:00,32.3,29.1,29.66,NW,326,3.5,3.5,88,0.00,CLR,FEW,0.01,WeatherDisplay:10.37,2013-02-12 09:36:00,
2013-02-12 04:41:00,32.4,29.0,29.66,NNW,329,4.6,4.6,87,0.00,CLR,FEW,0.01,WeatherDisplay:10.37,2013-02-12 09:41:00,
2013-02-12 04:46:00,32.4,29.0,29.66,NNW,327,5.0,5.0,87,0.00,CLR,FEW,0.01,WeatherDisplay:10.37,2013-02-12 09:46:00,
2013-02-12 04:51:00,32.4,29.0,29.66,NW,315,3.5,3.5,87,0.00,CLR,FEW,0.01,WeatherDisplay:10.37,2013-02-12 09:51:00,
2013-02-12 04:56:00,32.4,29.0,29.66,NW,311,3.5,3.5,87,0.00,CLR,FEW,0.01,WeatherDisplay:10.37,2013-02-12 09:56:00,
2013-02-12 05:01:00,32.5,28.8,29.66,NW,312,5.0,5.0,86,0.00,CLR,FEW,0.01,WeatherDisplay:10.37,2013-02-12 10:01:00,
2013-02-12 05:06:00,32.5,28.8,29.66,West,273,6.0,6.0,86,0.00,CLR,FEW,0.01,WeatherDisplay:10.37,2013-02-12 10:06:00,
2013-02-12 05:11:00,32.6,28.9,29.66,NNW,343,5.8,5.8,86,0.00,CLR,FEW,0.01,WeatherDisplay:10.37,2013-02-12 10:11:00,
2013-02-12 05:16:00,32.6,28.6,29.66,NW,306,4.6,4.6,85,0.00,CLR,FEW,0.01,WeatherDisplay:10.37,2013-02-12 10:16:00,
2013-02-12 05:21:00,32.7,28.7,29.66,NW,311,4.0,4.0,85,0.00,CLR,FEW,0.01,WeatherDisplay:10.37,2013-02-12 10:21:00,
2013-02-12 05:26:00,32.6,28.3,29.66,WNW,290,4.0,4.0,84,0.00,CLR,FEW,0.01,WeatherDisplay:10.37,2013-02-12 10:26:00,
2013-02-12 05:31:00,32.6,28.3,29.66,NW,309,3.5,3.5,84,0.00,CLR,FEW,0.01,WeatherDisplay:10.37,2013-02-12 10:31:00,
2013-02-12 05:36:00,32.6,28.6,29.66,NNW,333,4.0,4.0,85,0.00,CLR,FEW,0.01,WeatherDisplay:10.37,2013-02-12 10:36:00,
2013-02-12 05:41:00,32.6,28.6,29.66,NW,304,5.8,5.8,85,0.00,CLR,FEW,0.01,WeatherDisplay:10.37,2013-02-12 10:41:00,
2013-02-12 05:46:00,32.7,28.4,29.66,NW,316,8.1,8.1,84,0.00,CLR,FEW,0.01,WeatherDisplay:10.37,2013-02-12 10:46:00,
2013-02-12 05:51:00,32.8,28.5,29.66,NW,313,3.5,3.5,84,0.00,CLR,FEW,0.01,WeatherDisplay:10.37,2013-02-12 10:51:00,
2013-02-12 05:56:00,32.7,28.4,29.66,WNW,300,8.1,8.1,84,0.00,CLR,FEW,0.01,WeatherDisplay:10.37,2013-02-12 10:56:00,
2013-02-12 06:01:00,32.7,28.4,29.67,NW,313,5.8,5.8,84,0.00,CLR,FEW,0.01,WeatherDisplay:10.37,2013-02-12 11:01:00,
2013-02-12 06:06:00,32.8,28.5,29.67,NNW,338,3.5,3.5,84,0.00,CLR,FEW,0.01,WeatherDisplay:10.37,2013-02-12 11:06:00,
2013-02-12 06:11:00,32.8,28.5,29.67,WNW,299,6.9,6.9,84,0.00,CLR,FEW,0.01,WeatherDisplay:10.37,2013-02-12 11:11:00,
2013-02-12 06:16:00,32.7,28.4,29.67,West,279,3.0,3.0,84,0.00,CLR,FEW,0.01,WeatherDisplay:10.37,2013-02-12 11:16:00,
2013-02-12 06:21:00,32.6,28.6,29.67,NW,314,3.5,3.5,85,0.00,CLR,FEW,0.01,WeatherDisplay:10.37,2013-02-12 11:21:00,
2013-02-12 06:26:00,32.6,28.3,29.67,West,275,4.6,4.6,84,0.00,CLR,FEW,0.01,WeatherDisplay:10.37,2013-02-12 11:26:00,
2013-02-12 06:31:00,32.8,28.2,29.67,NW,319,8.1,8.1,83,0.00,CLR,FEW,0.01,WeatherDisplay:10.37,2013-02-12 11:31:00,
2013-02-12 06:36:00,32.8,28.2,29.67,WNW,294,4.0,4.0,83,0.00,CLR,FEW,0.01,WeatherDisplay:10.37,2013-02-12 11:36:00,
2013-02-12 06:41:00,32.8,28.2,29.67,WNW,290,3.5,3.5,83,0.00,CLR,FEW,0.01,WeatherDisplay:10.37,2013-02-12 11:41:00,
2013-02-12 06:46:00,32.6,28.3,29.67,NW,321,6.0,6.0,84,0.00,CLR,FEW,0.01,WeatherDisplay:10.37,2013-02-12 11:46:00,
2013-02-12 06:51:00,32.7,28.1,29.67,NW,318,5.8,5.8,83,0.00,CLR,FEW,0.01,WeatherDisplay:10.37,2013-02-12 11:51:00,
2013-02-12 06:56:00,32.9,28.0,29.67,WNW,290,4.6,4.6,82,0.00,CLR,FEW,0.01,WeatherDisplay:10.37,2013-02-12 11:56:00,
2013-02-12 07:01:00,32.8,28.2,29.67,NW,306,3.5,3.5,83,0.00,CLR,FEW,0.01,WeatherDisplay:10.37,2013-02-12 12:01:00,
2013-02-12 07:06:00,32.7,27.8,29.67,NW,305,9.2,9.2,82,0.00,CLR,FEW,0.01,WeatherDisplay:10.37,2013-02-12 12:06:00,
2013-02-12 07:11:00,32.8,27.9,29.67,WNW,290,5.8,5.8,82,0.00,CLR,FEW,0.01,WeatherDisplay:10.37,2013-02-12 12:11:00,
2013-02-12 07:16:00,32.7,27.8,29.67,NW,323,5.8,5.8,82,0.00,CLR,FEW,0.01,WeatherDisplay:10.37,2013-02-12 12:16:00,
2013-02-12 07:21:00,32.7,27.8,29.67,WNW,289,3.5,3.5,82,0.00,CLR,FEW,0.01,WeatherDisplay:10.37,2013-02-12 12:21:00,
2013-02-12 07:26:00,32.6,28.0,29.67,NW,304,4.6,4.6,83,0.00,CLR,FEW,0.01,WeatherDisplay:10.37,2013-02-12 12:26:00,
2013-02-12 07:31:00,32.4,27.8,29.67,WNW,299,3.5,3.5,83,0.00,CLR,FEW,0.01,WeatherDisplay:10.37,2013-02-12 12:31:00,
2013-02-12 07:36:00,32.3,27.7,29.67,WNW,286,4.6,4.6,83,0.00,CLR,FEW,0.01,WeatherDisplay:10.37,2013-02-12 12:36:00,
2013-02-12 07:41:00,32.3,27.7,29.67,WNW,303,5.8,5.8,83,0.00,CLR,FEW,0.01,WeatherDisplay:10.37,2013-02-12 12:41:00,
2013-02-12 07:46:00,32.5,27.9,29.67,NW,305,4.6,4.6,83,0.00,CLR,FEW,0.01,WeatherDisplay:10.37,2013-02-12 12:46:00,
2013-02-12 07:51:00,32.8,27.9,29.67,NW,325,9.2,9.2,82,0.00,CLR,FEW,0.01,WeatherDisplay:10.37,2013-02-12 12:51:00,
2013-02-12 07:56:00,33.0,28.1,29.68,NW,304,3.5,3.5,82,0.00,CLR,FEW,0.01,WeatherDisplay:10.37,2013-02-12 12:56:00,
2013-02-12 08:01:00,33.2,28.3,29.68,NW,319,6.0,6.0,82,0.00,CLR,FEW,0.01,WeatherDisplay:10.37,2013-02-12 13:01:00,
2013-02-12 08:06:00,33.3,27.8,29.68,NW,306,6.9,6.9,80,0.00,CLR,FEW,0.01,WeatherDisplay:10.37,2013-02-12 13:06:00,
2013-02-12 08:11:00,33.5,28.0,29.68,WNW,298,4.6,4.6,80,0.00,CLR,FEW,0.01,WeatherDisplay:10.37,2013-02-12 13:11:00,
2013-02-12 08:16:00,33.7,28.5,29.68,WNW,302,2.3,2.3,81,0.00,CLR,FEW,0.01,WeatherDisplay:10.37,2013-02-12 13:16:00,
2013-02-12 08:21:00,33.8,28.0,29.68,NNW,336,5.8,5.8,79,0.00,CLR,FEW,0.01,WeatherDisplay:10.37,2013-02-12 13:21:00,
2013-02-12 08:26:00,33.8,28.0,29.67,NW,311,8.1,8.1,79,0.00,CLR,FEW,0.01,WeatherDisplay:10.37,2013-02-12 13:26:00,
2013-02-12 08:31:00,33.9,27.8,29.68,NW,317,7.0,7.0,78,0.00,CLR,FEW,0.01,WeatherDisplay:10.37,2013-02-12 13:31:00,
2013-02-12 08:36:00,34.0,27.9,29.68,WNW,302,5.8,5.8,78,0.00,CLR,FEW,0.01,WeatherDisplay:10.37,2013-02-12 13:36:00,
2013-02-12 08:41:00,34.1,28.0,29.68,NW,307,5.8,5.8,78,0.00,CLR,FEW,0.01,WeatherDisplay:10.37,2013-02-12 13:41:00,
2013-02-12 08:46:00,34.2,28.1,29.68,WNW,287,4.6,4.6,78,0.00,CLR,FEW,0.01,WeatherDisplay:10.37,2013-02-12 13:46:00,
2013-02-12 08:51:00,34.3,28.2,29.69,WNW,295,5.0,5.0,78,0.00,CLR,FEW,0.01,WeatherDisplay:10.37,2013-02-12 13:51:00,
2013-02-12 08:56:00,34.5,28.0,29.69,NW,315,4.6,4.6,77,0.00,CLR,FEW,0.01,WeatherDisplay:10.37,2013-02-12 13:56:00,
2013-02-12 09:01:00,34.5,28.0,29.69,West,277,6.9,6.9,77,0.00,CLR,FEW,0.01,WeatherDisplay:10.37,2013-02-12 14:01:00,
2013-02-12 09:06:00,34.6,28.1,29.69,North,10,6.9,6.9,77,0.01,RA,FEW,0.02,WeatherDisplay:10.37,2013-02-12 14:06:00,
2013-02-12 09:11:00,35.0,28.2,29.69,WNW,292,9.2,9.2,76,0.01,RA,FEW,0.02,WeatherDisplay:10.37,2013-02-12 14:11:00,
2013-02-12 09:16:00,35.3,28.2,29.69,NNW,334,9.2,9.2,75,0.01,CLR,FEW,0.02,WeatherDisplay:10.37,2013-02-12 14:16:00,
2013-02-12 09:21:00,35.4,28.3,29.69,WNW,298,6.9,6.9,75,0.01,CLR,FEW,0.02,WeatherDisplay:10.37,2013-02-12 14:21:00,
2013-02-12 09:26:00,35.5,28.4,29.69,NW,317,6.9,6.9,75,0.01,CLR,FEW,0.02,WeatherDisplay:10.37,2013-02-12 14:26:00,
2013-02-12 09:31:00,35.6,28.1,29.70,WNW,290,8.1,8.1,74,0.01,CLR,FEW,0.02,WeatherDisplay:10.37,2013-02-12 14:31:00,
2013-02-12 09:36:00,35.5,28.4,29.70,NW,323,5.8,5.8,75,0.01,CLR,FEW,0.02,WeatherDisplay:10.37,2013-02-12 14:36:00,
2013-02-12 09:41:00,35.5,28.0,29.70,NW,306,8.1,8.1,74,0.01,CLR,FEW,0.02,WeatherDisplay:10.37,2013-02-12 14:41:00,
2013-02-12 09:46:00,35.4,27.9,29.70,West,273,9.2,9.2,74,0.01,CLR,FEW,0.02,WeatherDisplay:10.37,2013-02-12 14:46:00,
2013-02-12 09:51:00,35.5,28.0,29.70,West,278,5.8,5.8,74,0.01,CLR,FEW,0.02,WeatherDisplay:10.37,2013-02-12 14:51:00,
2013-02-12 09:56:00,35.4,27.6,29.70,NNW,340,6.9,6.9,73,0.01,CLR,FEW,0.02,WeatherDisplay:10.37,2013-02-12 14:56:00,
2013-02-12 10:01:00,35.3,28.2,29.70,WNW,303,3.0,3.0,75,0.01,CLR,FEW,0.02,WeatherDisplay:10.37,2013-02-12 15:01:00,
2013-02-12 10:06:00,35.2,28.1,29.71,NW,310,10.4,10.4,75,0.00,CLR,FEW,0.02,WeatherDisplay:10.37,2013-02-12 15:06:00,
2013-02-12 10:11:00,35.1,28.0,29.70,NW,304,5.8,5.8,75,0.00,CLR,FEW,0.02,WeatherDisplay:10.37,2013-02-12 15:11:00,
2013-02-12 10:16:00,35.0,27.9,29.71,WNW,288,9.2,9.2,75,0.00,CLR,FEW,0.02,WeatherDisplay:10.37,2013-02-12 15:16:00,
2013-02-12 10:21:00,35.1,28.0,29.71,WNW,292,10.4,10.4,75,0.00,CLR,FEW,0.02,WeatherDisplay:10.37,2013-02-12 15:21:00,
2013-02-12 10:26:00,35.2,28.4,29.70,West,281,6.9,6.9,76,0.01,RA,FEW,0.03,WeatherDisplay:10.37,2013-02-12 15:26:00,
2013-02-12 10:31:00,35.3,27.8,29.70,WNW,284,8.1,8.1,74,0.01,RA,FEW,0.03,WeatherDisplay:10.37,2013-02-12 15:31:00,
2013-02-12 10:36:00,35.4,28.3,29.70,WNW,291,5.8,5.8,75,0.01,CLR,FEW,0.03,WeatherDisplay:10.37,2013-02-12 15:36:00,
2013-02-12 10:41:00,35.4,28.3,29.71,NW,308,11.5,11.5,75,0.01,CLR,FEW,0.03,WeatherDisplay:10.37,2013-02-12 15:41:00,
2013-02-12 10:46:00,35.7,28.6,29.71,WNW,294,8.1,8.1,75,0.01,CLR,FEW,0.03,WeatherDisplay:10.37,2013-02-12 15:46:00,
2013-02-12 10:51:00,35.9,28.7,29.71,West,279,6.9,6.9,75,0.01,CLR,FEW,0.03,WeatherDisplay:10.37,2013-02-12 15:51:00,
2013-02-12 10:56:00,35.8,28.6,29.71,NW,323,10.4,10.4,75,0.01,CLR,FEW,0.03,WeatherDisplay:10.37,2013-02-12 15:56:00,
2013-02-12 11:01:00,35.7,28.6,29.71,WNW,288,6.9,6.9,75,0.01,CLR,FEW,0.03,WeatherDisplay:10.37,2013-02-12 16:01:00,
2013-02-12 11:06:00,36.1,28.6,29.71,NW,310,6.9,6.9,74,0.02,RA,FEW,0.04,WeatherDisplay:10.37,2013-02-12 16:06:00,
2013-02-12 11:11:00,36.1,28.6,29.70,NW,311,6.9,6.9,74,0.02,RA,FEW,0.04,WeatherDisplay:10.37,2013-02-12 16:11:00,
2013-02-12 11:16:00,35.9,28.4,29.71,NW,310,6.9,6.9,74,0.02,,FEW,0.04,WeatherDisplay:10.37,2013-02-12 16:16:00,
2013-02-12 11:21:00,35.8,28.6,29.71,WSW,249,3.5,3.5,75,0.02,CLR,FEW,0.04,WeatherDisplay:10.37,2013-02-12 16:21:00,
2013-02-12 11:26:00,35.6,28.8,29.70,NNW,336,8.1,8.1,76,0.01,CLR,FEW,0.04,WeatherDisplay:10.37,2013-02-12 16:26:00,
2013-02-12 11:31:00,35.5,28.4,29.71,WNW,302,10.4,10.4,75,0.01,CLR,FEW,0.04,WeatherDisplay:10.37,2013-02-12 16:31:00,
2013-02-12 11:36:00,35.6,28.8,29.71,West,281,5.8,5.8,76,0.01,CLR,FEW,0.04,WeatherDisplay:10.37,2013-02-12 16:36:00,
2013-02-12 11:41:00,35.7,28.6,29.71,NNW,329,8.0,8.0,75,0.01,CLR,FEW,0.04,WeatherDisplay:10.37,2013-02-12 16:41:00,
2013-02-12 11:46:00,35.9,29.1,29.70,NNW,348,9.2,9.2,76,0.01,CLR,FEW,0.04,WeatherDisplay:10.37,2013-02-12 16:46:00,
2013-02-12 11:51:00,36.2,29.0,29.71,North,355,3.5,3.5,75,0.01,CLR,FEW,0.04,WeatherDisplay:10.37,2013-02-12 16:51:00,
2013-02-12 11:56:00,36.3,29.1,29.71,NW,313,6.0,6.0,75,0.01,CLR,FEW,0.04,WeatherDisplay:10.37,2013-02-12 16:56:00,
2013-02-12 12:01:00,36.2,29.0,29.71,North,355,5.8,5.8,75,0.02,RA,FEW,0.05,WeatherDisplay:10.37,2013-02-12 17:01:00,
2013-02-12 12:06:00,36.3,29.1,29.70,SW,216,6.9,6.9,75,0.01,RA,FEW,0.05,WeatherDisplay:10.37,2013-02-12 17:06:00,
2013-02-12 12:11:00,36.2,29.0,29.71,NW,324,6.9,6.9,75,0.01,,FEW,0.05,WeatherDisplay:10.37,2013-02-12 17:11:00,
2013-02-12 12:16:00,36.3,29.1,29.71,NW,323,3.5,3.5,75,0.01,CLR,FEW,0.05,WeatherDisplay:10.37,2013-02-12 17:16:00,
2013-02-12 12:21:00,36.3,28.8,29.72,NW,304,6.9,6.9,74,0.01,CLR,FEW,0.05,WeatherDisplay:10.37,2013-02-12 17:21:00,
2013-02-12 12:26:00,36.2,29.0,29.72,WSW,255,3.5,3.5,75,0.01,CLR,FEW,0.05,WeatherDisplay:10.37,2013-02-12 17:26:00,
2013-02-12 12:31:00,36.1,28.9,29.72,NNE,17,2.3,2.3,75,0.02,RA,FEW,0.06,WeatherDisplay:10.37,2013-02-12 17:31:00,
2013-02-12 12:36:00,35.9,28.7,29.72,NW,309,10.4,10.4,75,0.02,RA,FEW,0.06,WeatherDisplay:10.37,2013-02-12 17:36:00,
2013-02-12 12:41:00,35.6,28.8,29.72,NNE,13,4.0,4.0,76,0.02,,FEW,0.06,WeatherDisplay:10.37,2013-02-12 17:41:00,
2013-02-12 12:46:00,35.5,29.0,29.72,NNW,333,6.0,6.0,77,0.02,CLR,FEW,0.06,WeatherDisplay:10.37,2013-02-12 17:46:00,
2013-02-12 12:51:00,35.4,29.2,29.72,NNW,344,3.5,3.5,78,0.02,CLR,FEW,0.06,WeatherDisplay:10.37,2013-02-12 17:51:00,
2013-02-12 12:56:00,35.4,28.9,29.72,NW,310,4.0,4.0,77,0.02,CLR,FEW,0.06,WeatherDisplay:10.37,2013-02-12 17:56:00,
2013-02-12 13:01:00,35.3,29.1,29.72,NNE,31,3.5,3.7,78,0.01,CLR,FEW,0.06,WeatherDisplay:10.37,2013-02-12 18:01:00,
2013-02-12 13:06:00,35.2,29.0,29.72,NW,323,5.0,5.0,78,0.01,CLR,FEW,0.06,WeatherDisplay:10.37,2013-02-12 18:06:00,
2013-02-12 13:11:00,35.2,29.0,29.72,WNW,289,4.0,4.0,78,0.01,CLR,FEW,0.06,WeatherDisplay:10.37,2013-02-12 18:11:00,
2013-02-12 13:16:00,35.2,28.7,29.72,WNW,301,10.4,10.4,77,0.01,CLR,FEW,0.06,WeatherDisplay:10.37,2013-02-12 18:16:00,
2013-02-12 13:21:00,35.1,28.9,29.72,WNW,298,9.2,9.2,78,0.01,CLR,FEW,0.06,WeatherDisplay:10.37,2013-02-12 18:21:00,
2013-02-12 13:26:00,35.1,28.9,29.72,West,271,4.6,4.6,78,0.01,CLR,FEW,0.06,WeatherDisplay:10.37,2013-02-12 18:26:00,
2013-02-12 13:31:00,35.0,28.8,29.73,NW,321,5.8,5.8,78,0.00,CLR,FEW,0.06,WeatherDisplay:10.37,2013-02-12 18:31:00,
2013-02-12 13:36:00,34.9,29.0,29.72,NW,310,3.5,3.5,79,0.01,RA,FEW,0.07,WeatherDisplay:10.37,2013-02-12 18:36:00,
2013-02-12 13:41:00,34.9,29.0,29.73,NNW,331,5.8,5.8,79,0.01,RA,FEW,0.07,WeatherDisplay:10.37,2013-02-12 18:41:00,
2013-02-12 13:46:00,34.9,28.7,29.73,WNW,303,4.6,4.6,78,0.01,,FEW,0.07,WeatherDisplay:10.37,2013-02-12 18:46:00,
2013-02-12 13:51:00,34.9,29.0,29.73,WNW,296,3.5,3.5,79,0.01,CLR,FEW,0.07,WeatherDisplay:10.37,2013-02-12 18:51:00,
2013-02-12 13:56:00,34.8,29.0,29.74,NNW,329,3.5,3.5,79,0.01,CLR,FEW,0.07,WeatherDisplay:10.37,2013-02-12 18:56:00,
2013-02-12 14:01:00,34.8,29.0,29.73,North,355,8.1,8.1,79,0.01,CLR,FEW,0.07,WeatherDisplay:10.37,2013-02-12 19:01:00,
2013-02-12 14:06:00,34.8,29.0,29.74,NW,313,6.9,6.9,79,0.01,CLR,FEW,0.07,WeatherDisplay:10.37,2013-02-12 19:06:00,
2013-02-12 14:11:00,34.8,29.0,29.74,NW,305,8.1,8.1,79,0.01,CLR,FEW,0.07,WeatherDisplay:10.37,2013-02-12 19:11:00,
2013-02-12 14:16:00,34.7,29.2,29.74,WNW,296,5.8,5.8,80,0.01,CLR,FEW,0.07,WeatherDisplay:10.37,2013-02-12 19:16:00,
2013-02-12 14:21:00,34.7,29.2,29.74,North,355,6.9,6.9,80,0.01,CLR,FEW,0.07,WeatherDisplay:10.37,2013-02-12 19:21:00,
2013-02-12 14:26:00,34.7,29.5,29.74,NW,314,3.0,3.0,81,0.01,CLR,FEW,0.07,WeatherDisplay:10.37,2013-02-12 19:26:00,
2013-02-12 14:30:00,34.6,29.4,29.74,WNW,296,3.5,3.5,81,0.01,CLR,FEW,0.07,WeatherDisplay:10.37,2013-02-12 19:30:00,
2013-02-12 14:35:00,34.6,29.4,29.74,WNW,296,3.5,3.5,81,0.00,CLR,FEW,0.07,WeatherDisplay:10.37,2013-02-12 19:35:00,
2013-02-12 14:40:00,34.5,29.3,29.75,NW,308,4.6,4.6,81,0.00,CLR,FEW,0.07,WeatherDisplay:10.37,2013-02-12 19:40:00,
2013-02-12 14:45:00,34.5,29.9,29.75,North,360,4.6,4.6,83,0.00,CLR,FEW,0.07,WeatherDisplay:10.37,2013-02-12 19:45:00,
2013-02-12 14:50:00,34.4,29.5,29.75,NW,304,3.5,3.5,82,0.00,CLR,FEW,0.07,WeatherDisplay:10.37,2013-02-12 19:50:00,
2013-02-12 14:55:00,34.4,29.5,29.75,WNW,299,4.0,4.0,82,0.00,CLR,FEW,0.07,WeatherDisplay:10.37,2013-02-12 19:55:00,
2013-02-12 15:00:00,34.5,29.3,29.75,NNW,333,3.5,3.5,81,0.00,CLR,FEW,0.07,WeatherDisplay:10.37,2013-02-12 20:00:00,
2013-02-12 15:05:00,34.6,29.1,29.75,NW,314,6.9,6.9,80,0.01,RA,FEW,0.08,WeatherDisplay:10.37,2013-02-12 20:05:00,
2013-02-12 15:10:00,34.6,29.1,29.75,NNW,336,8.1,8.1,80,0.01,RA,FEW,0.08,WeatherDisplay:10.37,2013-02-12 20:10:00,
2013-02-12 15:15:00,34.6,29.7,29.76,West,271,4.6,4.6,82,0.01,CLR,FEW,0.08,WeatherDisplay:10.37,2013-02-12 20:15:00,
2013-02-12 15:20:00,34.6,29.1,29.76,WNW,300,8.1,8.1,80,0.01,CLR,FEW,0.08,WeatherDisplay:10.37,2013-02-12 20:20:00,
2013-02-12 15:25:00,34.5,29.0,29.76,West,269,8.1,8.1,80,0.01,CLR,FEW,0.08,WeatherDisplay:10.37,2013-02-12 20:25:00,
2013-02-12 15:30:00,34.6,29.1,29.75,NW,308,3.5,3.5,80,0.01,CLR,FEW,0.08,WeatherDisplay:10.37,2013-02-12 20:30:00,
2013-02-12 15:35:00,34.6,29.1,29.76,NW,322,3.5,3.5,80,0.01,CLR,FEW,0.08,WeatherDisplay:10.37,2013-02-12 20:35:00,
2013-02-12 15:40:00,34.6,29.1,29.76,NW,320,3.5,3.5,80,0.01,CLR,FEW,0.08,WeatherDisplay:10.37,2013-02-12 20:40:00,
2013-02-12 15:45:00,34.6,29.1,29.75,WNW,298,3.5,3.5,80,0.01,CLR,FEW,0.08,WeatherDisplay:10.37,2013-02-12 20:45:00,
2013-02-12 15:50:00,34.6,29.1,29.75,NW,304,2.3,2.3,80,0.01,CLR,FEW,0.08,WeatherDisplay:10.37,2013-02-12 20:50:00,
2013-02-12 15:55:00,34.6,28.8,29.76,NNW,329,2.3,2.3,79,0.01,CLR,FEW,0.08,WeatherDisplay:10.37,2013-02-12 20:55:00,
2013-02-12 16:00:00,34.6,28.8,29.76,NNW,336,5.8,5.8,79,0.01,CLR,FEW,0.08,WeatherDisplay:10.37,2013-02-12 21:00:00,
2013-02-12 16:05:00,34.7,29.2,29.76,WNW,298,6.0,6.0,80,0.00,CLR,FEW,0.08,WeatherDisplay:10.37,2013-02-12 21:05:00,
2013-02-12 16:10:00,34.7,29.2,29.76,West,277,3.5,3.5,80,0.00,CLR,FEW,0.08,WeatherDisplay:10.37,2013-02-12 21:10:00,
2013-02-12 16:15:00,34.6,29.1,29.76,NW,314,6.9,6.9,80,0.00,CLR,FEW,0.08,WeatherDisplay:10.37,2013-02-12 21:15:00,
2013-02-12 16:20:00,34.5,29.0,29.75,WNW,292,6.9,6.9,80,0.00,CLR,FEW,0.08,WeatherDisplay:10.37,2013-02-12 21:20:00,
2013-02-12 16:25:00,34.4,28.9,29.75,NW,311,8.1,8.1,80,0.00,CLR,FEW,0.08,WeatherDisplay:10.37,2013-02-12 21:25:00,
2013-02-12 16:30:00,34.3,28.8,29.75,NNW,341,5.8,5.8,80,0.00,CLR,FEW,0.08,WeatherDisplay:10.37,2013-02-12 21:30:00,
2013-02-12 16:35:00,34.2,28.7,29.75,WNW,302,6.9,6.9,80,0.00,CLR,FEW,0.08,WeatherDisplay:10.37,2013-02-12 21:35:00,
2013-02-12 16:40:00,34.1,28.9,29.75,NW,317,5.0,5.0,81,0.00,CLR,FEW,0.08,WeatherDisplay:10.37,2013-02-12 21:40:00,
2013-02-12 16:45:00,34.1,28.9,29.76,NW,314,8.0,8.0,81,0.00,CLR,FEW,0.08,WeatherDisplay:10.37,2013-02-12 21:45:00,
2013-02-12 16:50:00,34.0,28.8,29.76,WNW,292,6.9,6.9,81,0.00,CLR,FEW,0.08,WeatherDisplay:10.37,2013-02-12 21:50:00,
2013-02-12 16:55:00,33.9,28.7,29.76,WNW,302,8.1,8.1,81,0.00,CLR,FEW,0.08,WeatherDisplay:10.37,2013-02-12 21:55:00,
2013-02-12 17:00:00,33.8,28.9,29.76,NW,305,5.8,5.8,82,0.00,CLR,FEW,0.08,WeatherDisplay:10.37,2013-02-12 22:00:00,
2013-02-12 17:05:00,33.7,28.8,29.76,WNW,298,6.9,6.9,82,0.00,CLR,FEW,0.08,WeatherDisplay:10.37,2013-02-12 22:05:00,
2013-02-12 17:10:00,33.5,28.6,29.76,WNW,300,4.6,4.6,82,0.00,CLR,FEW,0.08,WeatherDisplay:10.37,2013-02-12 22:10:00,
2013-02-12 17:15:00,33.4,28.5,29.76,West,277,3.5,3.5,82,0.00,CLR,FEW,0.08,WeatherDisplay:10.37,2013-02-12 22:15:00,
2013-02-12 17:20:00,33.4,28.5,29.76,NW,313,3.5,3.5,82,0.00,CLR,FEW,0.08,WeatherDisplay:10.37,2013-02-12 22:20:00,
2013-02-12 17:25:00,33.3,28.4,29.76,NNW,341,3.5,3.5,82,0.00,CLR,FEW,0.08,WeatherDisplay:10.37,2013-02-12 22:25:00,
2013-02-12 17:30:00,33.3,28.7,29.76,NNW,340,6.9,6.9,83,0.00,CLR,FEW,0.08,WeatherDisplay:10.37,2013-02-12 22:30:00,
2013-02-12 17:35:00,33.2,28.3,29.76,NNW,336,5.8,5.8,82,0.00,CLR,FEW,0.08,WeatherDisplay:10.37,2013-02-12 22:35:00,
2013-02-12 17:40:00,33.2,28.6,29.76,WNW,302,4.0,4.0,83,0.00,CLR,FEW,0.08,WeatherDisplay:10.37,2013-02-12 22:40:00,
2013-02-12 17:45:00,33.1,28.5,29.76,WNW,293,5.8,5.8,83,0.00,CLR,FEW,0.08,WeatherDisplay:10.37,2013-02-12 22:45:00,
2013-02-12 17:50:00,33.0,28.7,29.77,West,275,4.6,4.6,84,0.00,CLR,FEW,0.08,WeatherDisplay:10.37,2013-02-12 22:50:00,
2013-02-12 17:55:00,32.9,28.9,29.77,WNW,297,3.5,3.5,85,0.00,CLR,FEW,0.08,WeatherDisplay:10.37,2013-02-12 22:55:00,
2013-02-12 18:00:00,32.8,28.5,29.76,WNW,284,4.0,4.0,84,0.00,CLR,FEW,0.08,WeatherDisplay:10.37,2013-02-12 23:00:00,
2013-02-12 18:05:00,32.7,28.4,29.77,WNW,284,5.8,5.8,84,0.00,CLR,FEW,0.08,WeatherDisplay:10.37,2013-02-12 23:05:00,
2013-02-12 18:10:00,32.6,28.6,29.77,West,277,4.6,4.6,85,0.00,CLR,FEW,0.08,WeatherDisplay:10.37,2013-02-12 23:10:00,
2013-02-12 18:15:00,32.5,28.5,29.77,WNW,294,3.5,3.5,85,0.00,CLR,FEW,0.08,WeatherDisplay:10.37,2013-02-12 23:15:00,
2013-02-12 18:20:00,32.4,28.4,29.77,WNW,291,3.5,3.5,85,0.00,CLR,FEW,0.08,WeatherDisplay:10.37,2013-02-12 23:20:00,
2013-02-12 18:25:00,32.4,28.4,29.78,NW,309,3.5,3.5,85,0.00,CLR,FEW,0.08,WeatherDisplay:10.37,2013-02-12 23:25:00,
2013-02-12 18:30:00,32.4,28.4,29.79,WNW,303,3.5,3.5,85,0.00,CLR,FEW,0.08,WeatherDisplay:10.37,2013-02-12 23:30:00,
2013-02-12 18:35:00,32.4,28.1,29.79,NNW,329,3.5,3.5,84,0.00,CLR,FEW,0.08,WeatherDisplay:10.37,2013-02-12 23:35:00,
2013-02-12 18:40:00,32.4,28.4,29.79,NW,317,3.5,3.5,85,0.00,CLR,FEW,0.08,WeatherDisplay:10.37,2013-02-12 23:40:00,
2013-02-12 18:45:00,32.4,28.1,29.79,WNW,302,2.3,2.3,84,0.00,CLR,FEW,0.08,WeatherDisplay:10.37,2013-02-12 23:45:00,
2013-02-12 18:50:00,32.4,28.4,29.80,WNW,288,2.3,2.3,85,0.00,CLR,FEW,0.08,WeatherDisplay:10.37,2013-02-12 23:50:00,
2013-02-12 18:55:00,32.4,28.1,29.80,NW,317,2.3,2.3,84,0.00,CLR,FEW,0.08,WeatherDisplay:10.37,2013-02-12 23:55:00,
2013-02-12 19:00:00,32.4,28.7,29.81,NW,319,0.0,0.0,86,0.00,CLR,FEW,0.08,WeatherDisplay:10.37,2013-02-13 00:00:00,
2013-02-12 19:05:00,32.3,28.6,29.81,NW,319,2.3,2.3,86,0.00,CLR,FEW,0.08,WeatherDisplay:10.37,2013-02-13 00:05:00,
2013-02-12 19:10:00,32.2,28.5,29.81,NW,306,1.2,1.2,86,0.00,CLR,FEW,0.08,WeatherDisplay:10.37,2013-02-13 00:10:00,
2013-02-12 19:15:00,32.1,28.4,29.82,WNW,298,2.3,2.3,86,0.00,CLR,FEW,0.08,WeatherDisplay:10.37,2013-02-13 00:15:00,
2013-02-12 19:20:00,32.2,28.5,29.83,WNW,303,1.2,1.2,86,0.00,CLR,FEW,0.08,WeatherDisplay:10.37,2013-02-13 00:20:00,
2013-02-12 19:25:00,32.1,28.1,29.84,WNW,302,3.5,3.5,85,0.00,CLR,FEW,0.08,WeatherDisplay:10.37,2013-02-13 00:25:00,
2013-02-12 19:30:00,32.2,28.2,29.84,NNW,328,1.2,1.2,85,0.00,CLR,FEW,0.08,WeatherDisplay:10.37,2013-02-13 00:30:00,
2013-02-12 19:35:00,32.2,27.9,29.84,NW,322,5.8,5.8,84,0.00,CLR,FEW,0.08,WeatherDisplay:10.37,2013-02-13 00:35:00,
2013-02-12 19:40:00,32.2,27.9,29.84,SSW,194,2.0,2.0,84,0.00,CLR,FEW,0.08,WeatherDisplay:10.37,2013-02-13 00:40:00,
2013-02-12 19:45:00,32.1,28.1,29.85,NNW,348,3.0,3.0,85,0.00,CLR,FEW,0.08,WeatherDisplay:10.37,2013-02-13 00:45:00,
2013-02-12 19:50:00,32.1,27.8,29.85,NE,38,4.6,4.6,84,0.00,CLR,FEW,0.08,WeatherDisplay:10.37,2013-02-13 00:50:00,
2013-02-12 19:55:00,32.2,27.6,29.86,NNW,341,4.0,4.0,83,0.00,CLR,FEW,0.08,WeatherDisplay:10.37,2013-02-13 00:55:00,
2013-02-12 20:00:00,32.2,27.9,29.86,WNW,288,5.8,5.8,84,0.00,CLR,FEW,0.08,WeatherDisplay:10.37,2013-02-13 01:00:00,
2013-02-12 20:05:00,32.2,27.6,29.86,WSW,258,0.0,0.0,83,0.00,CLR,FEW,0.08,WeatherDisplay:10.37,2013-02-13 01:05:00,
2013-02-12 20:10:00,32.1,27.8,29.87,NE,39,4.6,4.6,84,0.00,CLR,FEW,0.08,WeatherDisplay:10.37,2013-02-13 01:10:00,
2013-02-12 20:15:00,32.2,27.6,29.88,NNW,346,3.5,3.5,83,0.00,CLR,FEW,0.08,WeatherDisplay:10.37,2013-02-13 01:15:00,
2013-02-12 20:20:00,32.2,27.3,29.88,WNW,296,3.5,3.5,82,0.00,CLR,FEW,0.08,WeatherDisplay:10.37,2013-02-13 01:20:00,
2013-02-12 20:25:00,32.2,27.3,29.88,WNW,302,3.0,3.0,82,0.00,CLR,FEW,0.08,WeatherDisplay:10.37,2013-02-13 01:25:00,
2013-02-12 20:30:00,32.1,27.2,29.88,NW,312,3.5,3.5,82,0.00,CLR,FEW,0.08,WeatherDisplay:10.37,2013-02-13 01:30:00,
2013-02-12 20:35:00,32.1,27.2,29.88,NW,312,2.3,2.3,82,0.00,CLR,FEW,0.08,WeatherDisplay:10.37,2013-02-13 01:35:00,
2013-02-12 20:40:00,32.1,27.2,29.88,West,280,2.3,2.3,82,0.00,CLR,FEW,0.08,WeatherDisplay:10.37,2013-02-13 01:40:00,
2013-02-12 20:45:00,32.0,27.4,29.88,North,5,0.0,0.0,83,0.00,CLR,FEW,0.08,WeatherDisplay:10.37,2013-02-13 01:45:00,
2013-02-12 20:50:00,32.0,26.8,29.88,NW,311,3.5,3.5,81,0.00,CLR,FEW,0.08,WeatherDisplay:10.37,2013-02-13 01:50:00,
2013-02-12 20:55:00,31.9,26.7,29.88,NNW,333,3.5,3.5,81,0.00,CLR,FEW,0.08,WeatherDisplay:10.37,2013-02-13 01:55:00,
2013-02-12 21:00:00,31.9,27.0,29.88,NW,311,2.0,2.0,82,0.00,CLR,FEW,0.08,WeatherDisplay:10.37,2013-02-13 02:00:00,
2013-02-12 21:05:00,31.8,26.9,29.87,SSE,153,3.5,3.5,82,0.00,CLR,FEW,0.08,WeatherDisplay:10.37,2013-02-13 02:05:00,
2013-02-12 21:10:00,31.7,26.8,29.87,NW,311,0.0,0.0,82,0.00,CLR,FEW,0.08,WeatherDisplay:10.37,2013-02-13 02:10:00,
2013-02-12 21:15:00,31.7,26.5,29.87,WNW,300,3.5,3.5,81,0.00,CLR,FEW,0.08,WeatherDisplay:10.37,2013-02-13 02:15:00,
2013-02-12 21:20:00,31.6,26.4,29.85,WNW,301,6.0,6.0,81,0.00,CLR,FEW,0.08,WeatherDisplay:10.37,2013-02-13 02:20:00,
2013-02-12 21:25:00,31.6,26.4,29.85,WNW,300,3.5,3.5,81,0.00,CLR,FEW,0.08,WeatherDisplay:10.37,2013-02-13 02:25:00,
2013-02-12 21:30:00,31.5,26.0,29.85,WNW,297,6.9,6.9,80,0.00,CLR,FEW,0.08,WeatherDisplay:10.37,2013-02-13 02:30:00,
2013-02-12 21:35:00,31.3,26.1,29.85,WNW,292,3.5,3.5,81,0.00,CLR,FEW,0.08,WeatherDisplay:10.37,2013-02-13 02:35:00,
2013-02-12 21:40:00,31.2,26.3,29.85,WNW,285,8.1,8.1,82,0.00,CLR,FEW,0.08,WeatherDisplay:10.37,2013-02-13 02:40:00,
2013-02-12 21:45:00,31.2,26.0,29.85,WNW,295,4.6,4.6,81,0.00,CLR,FEW,0.08,WeatherDisplay:10.37,2013-02-13 02:45:00,
2013-02-12 21:50:00,31.2,26.0,29.84,WNW,300,3.5,3.5,81,0.00,CLR,FEW,0.08,WeatherDisplay:10.37,2013-02-13 02:50:00,
2013-02-12 21:55:00,31.2,26.3,29.84,WNW,291,4.6,4.6,82,0.00,CLR,FEW,0.08,WeatherDisplay:10.37,2013-02-13 02:55:00,
2013-02-12 22:00:00,31.2,26.0,29.84,NW,304,4.6,4.6,81,0.00,CLR,FEW,0.08,WeatherDisplay:10.37,2013-02-13 03:00:00,
2013-02-12 22:05:00,31.2,25.7,29.85,WNW,299,3.5,3.5,80,0.00,CLR,FEW,0.08,WeatherDisplay:10.37,2013-02-13 03:05:00,
2013-02-12 22:10:00,31.2,26.3,29.85,NNE,33,3.5,3.5,82,0.00,CLR,FEW,0.08,WeatherDisplay:10.37,2013-02-13 03:10:00,
2013-02-12 22:15:00,31.2,26.0,29.85,WNW,298,4.6,4.6,81,0.00,CLR,FEW,0.08,WeatherDisplay:10.37,2013-02-13 03:15:00,
2013-02-12 22:20:00,31.2,26.0,29.85,WNW,301,3.5,3.5,81,0.00,CLR,FEW,0.08,WeatherDisplay:10.37,2013-02-13 03:20:00,
2013-02-12 22:25:00,31.0,25.9,29.84,NW,306,3.5,3.5,81,0.00,CLR,FEW,0.08,WeatherDisplay:10.37,2013-02-13 03:25:00,
2013-02-12 22:30:00,30.9,26.1,29.84,WNW,292,3.5,3.5,82,0.00,CLR,FEW,0.08,WeatherDisplay:10.37,2013-02-13 03:30:00,
2013-02-12 22:35:00,31.0,25.9,29.85,West,276,8.1,8.1,81,0.00,CLR,FEW,0.08,WeatherDisplay:10.37,2013-02-13 03:35:00,
2013-02-12 22:40:00,31.0,25.6,29.84,West,261,3.5,3.5,80,0.00,CLR,FEW,0.08,WeatherDisplay:10.37,2013-02-13 03:40:00,
2013-02-12 22:45:00,31.1,25.3,29.83,WNW,295,3.5,3.5,79,0.00,CLR,FEW,0.08,WeatherDisplay:10.37,2013-02-13 03:45:00,
2013-02-12 22:50:00,30.8,25.4,29.82,WNW,288,5.8,5.8,80,0.00,CLR,FEW,0.08,WeatherDisplay:10.37,2013-02-13 03:50:00,
2013-02-12 22:55:00,30.8,24.7,29.83,NNW,328,5.8,5.8,78,0.00,CLR,FEW,0.08,WeatherDisplay:10.37,2013-02-13 03:55:00,
2013-02-12 23:00:00,30.8,24.4,29.83,WNW,294,5.8,5.8,77,0.00,CLR,FEW,0.08,WeatherDisplay:10.37,2013-02-13 04:00:00,
2013-02-12 23:05:00,30.8,24.4,29.84,SSE,153,5.0,5.0,77,0.00,CLR,FEW,0.08,WeatherDisplay:10.37,2013-02-13 04:05:00,
2013-02-12 23:10:00,30.8,24.4,29.84,ENE,64,4.6,4.6,77,0.00,CLR,FEW,0.08,WeatherDisplay:10.37,2013-02-13 04:10:00,
2013-02-12 23:15:00,30.8,24.4,29.83,WNW,299,2.0,2.0,77,0.00,CLR,FEW,0.08,WeatherDisplay:10.37,2013-02-13 04:15:00,
2013-02-12 23:20:00,30.8,24.7,29.84,West,281,2.3,0.0,78,0.00,CLR,FEW,0.08,WeatherDisplay:10.37,2013-02-13 04:20:00,
2013-02-12 23:25:00,30.6,24.9,29.84,NE,38,3.5,0.0,79,0.00,CLR,FEW,0.08,WeatherDisplay:10.37,2013-02-13 04:25:00,
2013-02-12 23:30:00,30.6,24.6,29.84,NW,324,3.0,3.0,78,0.00,CLR,FEW,0.08,WeatherDisplay:10.37,2013-02-13 04:30:00,
2013-02-12 23:35:00,30.6,24.6,29.85,NNW,344,2.3,2.3,78,0.00,CLR,FEW,0.08,WeatherDisplay:10.37,2013-02-13 04:35:00,
2013-02-12 23:40:00,30.6,24.6,29.85,West,261,2.3,2.3,78,0.00,CLR,FEW,0.08,WeatherDisplay:10.37,2013-02-13 04:40:00,
2013-02-12 23:45:00,30.5,24.8,29.85,WSW,241,3.5,3.5,79,0.00,CLR,FEW,0.08,WeatherDisplay:10.37,2013-02-13 04:45:00,
2013-02-12 23:50:00,30.5,24.5,29.84,WSW,241,0.0,0.1,78,0.00,CLR,FEW,0.08,WeatherDisplay:10.37,2013-02-13 04:50:00,
2013-02-12 23:55:00,30.4,24.7,29.84,West,262,2.3,2.3,79,0.00,CLR,FEW,0.08,WeatherDisplay:10.37,2013-02-13 04:55:00,